Terminal Aerodrome Forecast
Issued by NWS

Home | Current Version | Previous Version | Text Only | Print | Product List | Glossary On
Versions: 1 2 3 4 5 6 7 8 9 10 11 12 13 14 15
000
FTUS46 KLOX 031741
TAFBUR
TAF
KBUR 031741Z 0318/0418 00000KT P6SM SKC
     FM032000 17008KT P6SM BKN200
     FM040400 VRB03KT P6SM BKN200
     FM041200 VRB03KT 5SM BR BKN010=

USA.gov is the U.S. government's official web portal to all federal, state and local government web resources and services.